Autopride — CQQE — position and weather

sailwx.info

Track history (hours):
 
Tides and Currents Weather Stations Pressure Air Temp Water Temp Dewpoint Dewpoint Depression Visibility Wind Speed Wind Dir Waves Ship Positions

Autopride

Last reported at 2016-Feb-09 06:33 UTC. Time now 2016-Feb-11 10:49 UTC.
Position N 50°33' E 000°05'.

Length 125 m; draft 5.3 m.

Type: Cargo ship. MMSI: 255801560.

Date/timePositionNaut miles runAvg speedWind from/ knotsBaromVisibWave heightAir tempDewpointWater temp
2016-Feb-09 06:33N 50°33' E 000°05'10 9.9
2016-Feb-09 05:34N 50°36' E 000°20'40 9.9
2016-Feb-09 01:29N 50°57' E 001°14'8 9.1
2016-Feb-09 00:34N 51°03' E 001°24'8 8.0
2016-Feb-08 23:34N 51°09' E 001°32'8 8.0
2016-Feb-08 22:34N 51°16' E 001°37'9 9.1
2016-Feb-08 21:34N 51°25' E 001°32'9 8.6
2016-Feb-08 20:34N 51°29' E 001°44'1110.9
2016-Feb-08 19:33N 51°26' E 002°01'1111.4
2016-Feb-08 18:33N 51°21' E 002°17'1110.7
2016-Feb-08 17:32N 51°23' E 002°34'1212.3
2016-Feb-08 16:33N 51°23' E 002°54'1211.6
2016-Feb-08 15:33N 51°21' E 003°12'1 1.0
2016-Feb-08 14:13N 51°20' E 003°13'1 1.4
2016-Feb-08 13:33N 51°19' E 003°13'0 0.3
2016-Feb-08 12:33N 51°19' E 003°13'0 0.0
2016-Feb-08 11:33N 51°19' E 003°13'0 0.0
2016-Feb-08 10:33N 51°19' E 003°13'0 0.0
2016-Feb-08 09:18N 51°20' E 003°13'0 0.0
2016-Feb-08 08:27N 51°19' E 003°13'0 0.0
2016-Feb-08 07:33N 51°19' E 003°13'0 0.0
2016-Feb-08 06:33N 51°19' E 003°13'0 0.0
2016-Feb-08 05:27N 51°19' E 003°13'0 0.0
2016-Feb-08 04:33N 51°19' E 003°13'0 0.0
2016-Feb-08 03:33N 51°19' E 003°13'0 0.0
2016-Feb-08 02:24N 51°19' E 003°13'0 0.0
2016-Feb-08 01:33N 51°19' E 003°13'0 0.0
2016-Feb-08 00:26N 51°19' E 003°13'0 0.0
2016-Feb-07 23:32N 51°19' E 003°13'0 0.0
2016-Feb-07 22:26N 51°19' E 003°13'0 0.0
2016-Feb-07 21:14N 51°19' E 003°13'0 0.0
2016-Feb-07 20:29N 51°19' E 003°13'0 0.0
2016-Feb-07 19:32N 51°19' E 003°13'0 0.0
2016-Feb-07 18:29N 51°19' E 003°13'0 0.0
2016-Feb-07 17:32N 51°19' E 003°13'0 0.0
2016-Feb-07 16:32N 51°19' E 003°13'0 0.0
2016-Feb-07 15:26N 51°19' E 003°13'0 0.0
2016-Feb-07 14:32N 51°19' E 003°13'0 0.1
2016-Feb-07 13:33N 51°19' E 003°13'1 0.7
2016-Feb-07 12:33N 51°20' E 003°13'10 9.3
2016-Feb-07 11:30N 51°23' E 002°58'1414.5
2016-Feb-07 10:32N 51°22' E 002°35'1111.6
2016-Feb-07 09:33N 51°18' E 002°18'1212.1
2016-Feb-07 08:33N 51°12' E 002°01'1313.1
2016-Feb-07 07:33N 51°05' E 001°44'1010.4
2016-Feb-07 06:33N 50°57' E 001°33'10 9.6
2016-Feb-07 05:33N 50°48' E 001°26'  
2016-Feb-04 12:34N 43°22' W 001°57'  
2016-Feb-02 02:17N 50°31' W 000°01'911.2
2016-Feb-02 01:28N 50°33' E 000°13'1011.3
2016-Feb-02 00:34N 50°36' E 000°29'1211.8
2016-Feb-01 23:33N 50°42' E 000°45'1212.3
2016-Feb-01 22:33N 50°50' E 001°00'1312.4
2016-Feb-01 21:33N 50°58' E 001°15'9 8.8
2016-Feb-01 20:33N 51°05' E 001°23'1313.4
2016-Feb-01 19:34N 51°11' E 001°42'1413.7
2016-Feb-01 18:33N 51°22' E 001°56'1312.6
2016-Feb-01 17:33N 51°21' E 002°16'1211.4
2016-Feb-01 16:30N 51°23' E 002°35'1111.8
2016-Feb-01 15:33N 51°23' E 002°52'1312.9
2016-Feb-01 14:33N 51°20' E 003°13'0 0.2
2016-Feb-01 13:33N 51°20' E 003°13'1 0.5
2016-Feb-01 12:31N 51°19' E 003°13'0 0.0
2016-Feb-01 11:28N 51°19' E 003°13'0 0.0
2016-Feb-01 10:19N 51°19' E 003°13'0 0.0
2016-Feb-01 09:28N 51°19' E 003°13'0 0.0
2016-Feb-01 08:31N 51°19' E 003°13'0 0.0
2016-Feb-01 07:28N 51°19' E 003°13'0 0.0
2016-Feb-01 06:28N 51°19' E 003°13'0 0.0
2016-Feb-01 05:25N 51°19' E 003°13'0 0.0
2016-Feb-01 04:31N 51°20' E 003°13'0 0.0
2016-Feb-01 03:28N 51°19' E 003°13'0 0.0
2016-Feb-01 02:31N 51°19' E 003°13'0 0.0
2016-Feb-01 01:31N 51°19' E 003°13'0 0.0
2016-Feb-01 00:28N 51°19' E 003°13'1 0.6
2016-Jan-31 23:33N 51°20' E 003°13'0 0.0
2016-Jan-31 22:32N 51°20' E 003°13'0 0.0
2016-Jan-31 21:33N 51°20' E 003°13'2 1.6
2016-Jan-31 20:33N 51°21' E 003°12'1514.9
2016-Jan-31 19:33N 51°22' E 002°48'9 8.9
2016-Jan-31 18:33N 51°22' E 002°34'1 1.4
2016-Jan-31 17:33N 51°23' E 002°36'1 0.9
2016-Jan-31 16:33N 51°22' E 002°36'6 6.0
2016-Jan-31 15:33N 51°21' E 002°27'4 4.2
2016-Jan-31 14:33N 51°19' E 002°21'4 4.1
2016-Jan-31 13:33N 51°17' E 002°15'10 9.6
2016-Jan-31 12:33N 51°12' E 002°02'1010.4
2016-Jan-31 11:33N 51°07' E 001°48'1010.0
2016-Jan-31 10:33N 50°60' E 001°37'9 9.5
2016-Jan-31 09:33N 50°52' E 001°27'1310.2
2016-Jan-31 08:17N 50°40' E 001°20'  
Track history (hours):
 
Tides and Currents Weather Stations Pressure Air Temp Water Temp Dewpoint Dewpoint Depression Visibility Wind Speed Wind Dir Waves Ship Positions

Autopride

Last reported at 2016-Feb-09 06:33 UTC. Time now 2016-Feb-11 10:49 UTC.
Position N 50°33' E 000°05'.

Length 125 m; draft 5.3 m.

Type: Cargo ship. MMSI: 255801560.

Date/timePositionNaut miles runAvg speedWind from/ knotsBaromVisibWave heightAir tempDewpointWater temp
2016-Feb-09 06:33N 50°33' E 000°05'10 9.9
2016-Feb-09 05:34N 50°36' E 000°20'40 9.9
2016-Feb-09 01:29N 50°57' E 001°14'8 9.1
2016-Feb-09 00:34N 51°03' E 001°24'8 8.0
2016-Feb-08 23:34N 51°09' E 001°32'8 8.0
2016-Feb-08 22:34N 51°16' E 001°37'9 9.1
2016-Feb-08 21:34N 51°25' E 001°32'9 8.6
2016-Feb-08 20:34N 51°29' E 001°44'1110.9
2016-Feb-08 19:33N 51°26' E 002°01'1111.4
2016-Feb-08 18:33N 51°21' E 002°17'1110.7
2016-Feb-08 17:32N 51°23' E 002°34'1212.3
2016-Feb-08 16:33N 51°23' E 002°54'1211.6
2016-Feb-08 15:33N 51°21' E 003°12'1 1.0
2016-Feb-08 14:13N 51°20' E 003°13'1 1.4
2016-Feb-08 13:33N 51°19' E 003°13'0 0.3
2016-Feb-08 12:33N 51°19' E 003°13'0 0.0
2016-Feb-08 11:33N 51°19' E 003°13'0 0.0
2016-Feb-08 10:33N 51°19' E 003°13'0 0.0
2016-Feb-08 09:18N 51°20' E 003°13'0 0.0
2016-Feb-08 08:27N 51°19' E 003°13'0 0.0
2016-Feb-08 07:33N 51°19' E 003°13'0 0.0
2016-Feb-08 06:33N 51°19' E 003°13'0 0.0
2016-Feb-08 05:27N 51°19' E 003°13'0 0.0
2016-Feb-08 04:33N 51°19' E 003°13'0 0.0
2016-Feb-08 03:33N 51°19' E 003°13'0 0.0
2016-Feb-08 02:24N 51°19' E 003°13'0 0.0
2016-Feb-08 01:33N 51°19' E 003°13'0 0.0
2016-Feb-08 00:26N 51°19' E 003°13'0 0.0
2016-Feb-07 23:32N 51°19' E 003°13'0 0.0
2016-Feb-07 22:26N 51°19' E 003°13'0 0.0
2016-Feb-07 21:14N 51°19' E 003°13'0 0.0
2016-Feb-07 20:29N 51°19' E 003°13'0 0.0
2016-Feb-07 19:32N 51°19' E 003°13'0 0.0
2016-Feb-07 18:29N 51°19' E 003°13'0 0.0
2016-Feb-07 17:32N 51°19' E 003°13'0 0.0
2016-Feb-07 16:32N 51°19' E 003°13'0 0.0
2016-Feb-07 15:26N 51°19' E 003°13'0 0.0
2016-Feb-07 14:32N 51°19' E 003°13'0 0.1
2016-Feb-07 13:33N 51°19' E 003°13'1 0.7
2016-Feb-07 12:33N 51°20' E 003°13'10 9.3
2016-Feb-07 11:30N 51°23' E 002°58'1414.5
2016-Feb-07 10:32N 51°22' E 002°35'1111.6
2016-Feb-07 09:33N 51°18' E 002°18'1212.1
2016-Feb-07 08:33N 51°12' E 002°01'1313.1
2016-Feb-07 07:33N 51°05' E 001°44'1010.4
2016-Feb-07 06:33N 50°57' E 001°33'10 9.6
2016-Feb-07 05:33N 50°48' E 001°26'  
2016-Feb-04 12:34N 43°22' W 001°57'  
2016-Feb-02 02:17N 50°31' W 000°01'911.2
2016-Feb-02 01:28N 50°33' E 000°13'1011.3
2016-Feb-02 00:34N 50°36' E 000°29'1211.8
2016-Feb-01 23:33N 50°42' E 000°45'1212.3
2016-Feb-01 22:33N 50°50' E 001°00'1312.4
2016-Feb-01 21:33N 50°58' E 001°15'9 8.8
2016-Feb-01 20:33N 51°05' E 001°23'1313.4
2016-Feb-01 19:34N 51°11' E 001°42'1413.7
2016-Feb-01 18:33N 51°22' E 001°56'1312.6
2016-Feb-01 17:33N 51°21' E 002°16'1211.4
2016-Feb-01 16:30N 51°23' E 002°35'1111.8
2016-Feb-01 15:33N 51°23' E 002°52'1312.9
2016-Feb-01 14:33N 51°20' E 003°13'0 0.2
2016-Feb-01 13:33N 51°20' E 003°13'1 0.5
2016-Feb-01 12:31N 51°19' E 003°13'0 0.0
2016-Feb-01 11:28N 51°19' E 003°13'0 0.0
2016-Feb-01 10:19N 51°19' E 003°13'0 0.0
2016-Feb-01 09:28N 51°19' E 003°13'0 0.0
2016-Feb-01 08:31N 51°19' E 003°13'0 0.0
2016-Feb-01 07:28N 51°19' E 003°13'0 0.0
2016-Feb-01 06:28N 51°19' E 003°13'0 0.0
2016-Feb-01 05:25N 51°19' E 003°13'0 0.0
2016-Feb-01 04:31N 51°20' E 003°13'0 0.0
2016-Feb-01 03:28N 51°19' E 003°13'0 0.0
2016-Feb-01 02:31N 51°19' E 003°13'0 0.0
2016-Feb-01 01:31N 51°19' E 003°13'0 0.0
2016-Feb-01 00:28N 51°19' E 003°13'1 0.6
2016-Jan-31 23:33N 51°20' E 003°13'0 0.0
2016-Jan-31 22:32N 51°20' E 003°13'0 0.0
2016-Jan-31 21:33N 51°20' E 003°13'2 1.6
2016-Jan-31 20:33N 51°21' E 003°12'1514.9
2016-Jan-31 19:33N 51°22' E 002°48'9 8.9
2016-Jan-31 18:33N 51°22' E 002°34'1 1.4
2016-Jan-31 17:33N 51°23' E 002°36'1 0.9
2016-Jan-31 16:33N 51°22' E 002°36'6 6.0
2016-Jan-31 15:33N 51°21' E 002°27'4 4.2
2016-Jan-31 14:33N 51°19' E 002°21'4 4.1
2016-Jan-31 13:33N 51°17' E 002°15'10 9.6
2016-Jan-31 12:33N 51°12' E 002°02'1010.4
2016-Jan-31 11:33N 51°07' E 001°48'1010.0
2016-Jan-31 10:33N 50°60' E 001°37'9 9.5
2016-Jan-31 09:33N 50°52' E 001°27'1310.2
2016-Jan-31 08:17N 50°40' E 001°20'  

Dump ship's entire track history